Time;durP1;ratioP1;P1;durP2;ratioP2;P2;SDS_P1;SDS_P2;PMS_P1;PMS_P2;Temp;Humidity;BMP_temperature;BMP_pressure;BME280_temperature;BME280_humidity;BME280_pressure;Samples;Min_cycle;Max_cycle;Signal;HPM_P1;HPM_P2
2023/04/27 00:02:07;;;;;;;13.45;8.20;;;;;;;5.01;64.03;100818.97;10204857;29;20044;-78
2023/04/27 00:07:10;;;;;;;17.65;7.68;;;;;;;5.14;63.77;100821.88;10207490;29;20044;-79
2023/04/27 00:12:12;;;;;;;13.88;7.75;;;;;;;5.33;63.51;100814.66;10216025;29;20067;-78
2023/04/27 00:17:16;;;;;;;11.05;6.88;;;;;;;5.43;63.36;100810.59;10209261;29;20484;-78
2023/04/27 00:22:20;;;;;;;13.13;6.10;;;;;;;5.47;62.99;100822.78;10209038;29;20066;-79
2023/04/27 00:27:22;;;;;;;11.68;6.88;;;;;;;5.50;62.86;100814.63;10210566;29;20051;-76
2023/04/27 00:32:27;;;;;;;17.92;6.72;;;;;;;5.53;62.64;100808.28;10198470;29;20063;-78
2023/04/27 00:37:30;;;;;;;15.55;6.88;;;;;;;5.47;62.83;100816.59;10189900;29;20051;-78
2023/04/27 00:42:32;;;;;;;13.23;6.13;;;;;;;5.33;63.06;100814.66;10198425;29;20091;-78
2023/04/27 00:47:37;;;;;;;11.55;6.32;;;;;;;5.26;62.88;100813.25;10215105;29;20146;-74
2023/04/27 00:52:41;;;;;;;11.20;6.28;;;;;;;5.17;62.81;100817.25;10224165;29;20048;-77
2023/04/27 00:57:44;;;;;;;13.38;6.55;;;;;;;5.15;63.27;100821.78;10203382;29;20040;-78
2023/04/27 01:02:48;;;;;;;7.75;5.72;;;;;;;5.09;63.21;100821.25;10205660;29;20058;-78
2023/04/27 01:07:52;;;;;;;14.57;6.03;;;;;;;4.98;63.28;100835.94;10214865;29;20048;-78
2023/04/27 01:12:56;;;;;;;11.43;5.28;;;;;;;4.92;63.36;100846.91;10210625;29;20073;-79
2023/04/27 01:18:01;;;;;;;11.40;6.00;;;;;;;4.91;63.34;100845.19;10193406;29;20083;-78
2023/04/27 01:23:04;;;;;;;10.15;5.53;;;;;;;4.92;62.72;100854.03;10185958;29;20044;-77
2023/04/27 01:28:08;;;;;;;10.27;5.25;;;;;;;4.81;62.51;100850.09;10205332;29;20520;-78
2023/04/27 01:33:12;;;;;;;12.40;5.50;;;;;;;4.88;62.39;100865.75;10193479;29;20047;-77
2023/04/27 01:38:15;;;;;;;7.82;4.90;;;;;;;4.82;62.45;100870.44;10184892;29;20047;-78
2023/04/27 01:43:20;;;;;;;13.50;5.38;;;;;;;4.67;62.60;100873.03;10193922;29;20051;-78
2023/04/27 01:48:23;;;;;;;8.85;4.85;;;;;;;4.59;62.98;100879.56;10197540;29;20043;-77
2023/04/27 01:53:26;;;;;;;15.48;5.13;;;;;;;4.59;62.92;100886.69;10224105;29;20058;-77
2023/04/27 01:58:30;;;;;;;14.05;4.93;;;;;;;4.48;63.12;100876.56;10200560;29;20136;-77
2023/04/27 02:03:33;;;;;;;11.60;4.50;;;;;;;4.43;63.18;100897.19;10188659;29;20054;-78
2023/04/27 02:08:36;;;;;;;11.18;5.35;;;;;;;4.45;63.48;100894.47;10175436;29;20050;-77
2023/04/27 02:13:40;;;;;;;10.20;5.38;;;;;;;4.35;63.52;100900.22;10187167;29;20070;-77
2023/04/27 02:18:43;;;;;;;7.18;4.97;;;;;;;4.11;64.20;100899.56;10187986;29;20052;-77
2023/04/27 02:23:46;;;;;;;14.25;5.60;;;;;;;4.01;64.34;100898.25;10183874;29;20783;-78
2023/04/27 02:28:51;;;;;;;12.95;5.50;;;;;;;4.02;64.52;100896.47;10183979;29;20107;-77
2023/04/27 02:33:54;;;;;;;14.85;5.53;;;;;;;3.98;64.68;100893.09;10202162;29;20048;-78
2023/04/27 02:39:00;;;;;;;16.17;5.60;;;;;;;3.93;64.55;100895.09;10185286;29;20080;-77
2023/04/27 02:44:04;;;;;;;11.85;5.43;;;;;;;3.85;64.69;100906.06;10202475;29;20070;-76
2023/04/27 02:49:07;;;;;;;12.40;5.38;;;;;;;3.64;64.90;100897.22;10204177;29;20562;-77
2023/04/27 02:54:10;;;;;;;8.57;4.85;;;;;;;3.25;65.60;100890.06;10201940;29;20491;-79
2023/04/27 02:59:14;;;;;;;7.47;4.65;;;;;;;3.29;65.59;100896.09;10205162;29;20051;-76
2023/04/27 03:04:18;;;;;;;9.70;4.47;;;;;;;3.17;65.56;100896.63;10187415;29;20499;-77
2023/04/27 03:09:21;;;;;;;9.48;4.55;;;;;;;3.19;65.68;100900.09;10188095;29;20051;-77
2023/04/27 03:14:25;;;;;;;12.40;5.13;;;;;;;3.26;65.31;100891.81;10185152;29;20056;-78
2023/04/27 03:19:28;;;;;;;10.13;5.30;;;;;;;3.22;64.79;100895.50;10203155;29;20098;-78
2023/04/27 03:24:33;;;;;;;10.73;4.00;;;;;;;3.12;65.01;100890.66;10185225;29;20075;-77
2023/04/27 03:29:37;;;;;;;10.73;4.85;;;;;;;3.03;64.69;100884.78;10200822;29;20107;-75
2023/04/27 03:34:40;;;;;;;10.30;4.32;;;;;;;3.11;64.83;100883.63;10209016;29;20055;-75
2023/04/27 03:39:43;;;;;;;9.73;4.28;;;;;;;3.11;64.57;100878.31;10172705;29;20147;-77
2023/04/27 03:44:48;;;;;;;12.05;5.07;;;;;;;3.00;64.49;100886.72;10181044;29;20075;-78
2023/04/27 03:49:51;;;;;;;10.77;4.97;;;;;;;3.08;64.99;100881.09;10192499;29;20048;-79
2023/04/27 03:54:54;;;;;;;9.45;4.80;;;;;;;3.09;64.59;100882.81;10190872;29;20479;-76
2023/04/27 03:59:58;;;;;;;11.43;5.28;;;;;;;2.99;64.58;100887.63;10202351;29;20043;-78
2023/04/27 04:05:01;;;;;;;8.57;4.95;;;;;;;3.02;64.71;100891.03;10180159;29;20048;-78
2023/04/27 04:10:05;;;;;;;10.43;4.18;;;;;;;3.03;64.75;100899.88;10203549;29;20035;-76
2023/04/27 04:15:10;;;;;;;9.13;4.72;;;;;;;2.93;64.50;100903.81;10180245;29;20044;-76
2023/04/27 04:20:13;;;;;;;9.93;4.18;;;;;;;2.85;64.77;100901.47;10176730;29;20036;-76
2023/04/27 04:25:16;;;;;;;10.15;4.55;;;;;;;2.84;64.68;100915.66;10176658;29;20415;-76
2023/04/27 04:30:21;;;;;;;9.93;4.53;;;;;;;2.87;64.90;100917.34;10184700;29;20040;-77
2023/04/27 04:35:24;;;;;;;10.15;4.63;;;;;;;3.00;64.83;100921.22;10179271;29;20801;-76
2023/04/27 04:40:27;;;;;;;15.32;4.80;;;;;;;2.99;64.64;100919.47;10188188;29;20036;-76
2023/04/27 04:45:32;;;;;;;10.23;4.88;;;;;;;3.01;64.43;100922.94;10178923;29;20047;-77
2023/04/27 04:50:35;;;;;;;9.98;4.65;;;;;;;3.01;64.65;100926.44;10182117;29;20558;-77
2023/04/27 04:55:38;;;;;;;8.00;4.13;;;;;;;3.06;64.68;100928.94;10181837;29;20103;-75
2023/04/27 05:00:44;;;;;;;9.55;4.78;;;;;;;3.12;64.49;100933.97;10171537;29;20074;-76
2023/04/27 05:05:48;;;;;;;8.82;5.32;;;;;;;3.19;64.46;100932.81;10185219;29;20047;-76
2023/04/27 05:10:50;;;;;;;9.30;4.35;;;;;;;3.28;64.05;100936.88;10188315;29;20447;-75
2023/04/27 05:15:55;;;;;;;13.50;5.18;;;;;;;3.38;64.18;100934.72;10191101;29;20071;-76
2023/04/27 05:20:58;;;;;;;8.15;4.93;;;;;;;3.48;64.00;100941.31;10206145;29;20384;-74
2023/04/27 05:26:00;;;;;;;14.50;4.78;;;;;;;3.55;63.95;100950.78;10191426;29;20048;-75
2023/04/27 05:31:05;;;;;;;10.25;4.82;;;;;;;3.73;63.98;100949.13;10214543;29;20036;-74
2023/04/27 05:36:08;;;;;;;14.23;5.53;;;;;;;3.86;64.13;100955.63;10199699;29;20052;-75
2023/04/27 05:41:11;;;;;;;14.32;4.82;;;;;;;3.93;64.23;100961.53;10198749;29;20520;-74
2023/04/27 05:46:15;;;;;;;10.88;5.10;;;;;;;4.03;64.06;100952.22;10203563;29;20095;-75
2023/04/27 05:51:18;;;;;;;12.48;5.80;;;;;;;4.15;64.16;100966.75;10201662;29;20043;-75
2023/04/27 05:56:22;;;;;;;12.02;5.97;;;;;;;4.09;63.73;100969.72;10205826;29;20132;-75
2023/04/27 06:01:26;;;;;;;14.07;5.95;;;;;;;4.02;63.76;100970.91;10201253;29;20028;-75
2023/04/27 06:06:31;;;;;;;7.30;5.28;;;;;;;4.15;66.04;100978.25;10194111;29;20079;-75
2023/04/27 06:11:34;;;;;;;22.35;6.80;;;;;;;4.16;65.35;100981.78;10156504;29;20047;-74
2023/04/27 06:16:39;;;;;;;13.07;5.90;;;;;;;4.57;64.52;100979.03;10164646;29;20075;-75
2023/04/27 06:21:42;;;;;;;11.00;5.97;;;;;;;4.35;65.10;100987.13;10155034;29;20062;-74
2023/04/27 06:26:45;;;;;;;4.80;3.17;;;;;;;4.97;64.31;100995.78;10168216;29;20051;-75
2023/04/27 06:31:49;;;;;;;8.18;5.07;;;;;;;5.48;61.39;100976.38;10155042;29;20074;-75
2023/04/27 06:36:52;;;;;;;11.13;3.30;;;;;;;6.22;61.15;100969.06;10162574;29;20186;-74
2023/04/27 06:41:55;;;;;;;6.35;3.30;;;;;;;6.85;57.63;100972.66;10163893;29;20079;-74
2023/04/27 06:47:01;;;;;;;7.43;3.53;;;;;;;7.14;56.62;100969.34;10148428;29;20102;-73
2023/04/27 06:52:05;;;;;;;10.75;4.18;;;;;;;7.43;55.77;100970.28;10165461;29;20048;-74
2023/04/27 06:57:08;;;;;;;7.07;2.45;;;;;;;7.64;52.99;100969.03;10147675;29;20508;-75
2023/04/27 07:02:12;;;;;;;11.65;3.92;;;;;;;7.86;53.60;100981.97;10161452;29;20071;-77
2023/04/27 07:07:15;;;;;;;6.97;2.42;;;;;;;8.02;50.78;100976.56;10162358;29;21340;-75
2023/04/27 07:12:18;;;;;;;7.93;3.00;;;;;;;8.15;52.08;100977.53;10161561;29;20530;-75
2023/04/27 07:17:22;;;;;;;9.70;2.47;;;;;;;8.59;50.94;100973.94;10162193;29;20048;-74
2023/04/27 07:22:25;;;;;;;8.07;2.38;;;;;;;9.06;50.26;100983.41;10163895;29;20143;-74
2023/04/27 07:27:30;;;;;;;7.70;3.00;;;;;;;9.07;48.21;100976.22;10161232;29;21693;-74
2023/04/27 07:32:35;;;;;;;6.95;2.85;;;;;;;9.32;47.85;100971.94;10160480;29;20043;-74
2023/04/27 07:37:39;;;;;;;10.18;3.83;;;;;;;9.47;47.18;100968.25;10160589;29;20047;-74
2023/04/27 07:42:42;;;;;;;8.27;4.00;;;;;;;9.49;46.77;100966.31;10158287;29;20066;-77
2023/04/27 07:47:46;;;;;;;5.60;2.92;;;;;;;9.60;46.04;100957.53;10137885;29;20503;-74
2023/04/27 07:52:49;;;;;;;10.90;2.70;;;;;;;9.71;46.47;100957.69;10153796;29;20060;-74
2023/04/27 07:57:53;;;;;;;5.32;2.60;;;;;;;9.87;43.12;100955.69;10146559;29;20066;-75
2023/04/27 08:02:57;;;;;;;5.97;3.22;;;;;;;10.09;44.93;100956.84;10167343;29;20055;-73
2023/04/27 08:08:00;;;;;;;9.13;5.40;;;;;;;10.36;43.18;100954.91;10159531;29;20062;-76
2023/04/27 08:13:03;;;;;;;13.23;6.88;;;;;;;10.00;44.50;100958.38;10161699;29;20691;-74
2023/04/27 08:18:07;;;;;;;14.52;7.38;;;;;;;10.38;44.27;100952.13;10169785;29;20078;-74
2023/04/27 08:23:11;;;;;;;11.02;4.13;;;;;;;10.98;45.20;100948.66;10167068;29;21358;-77
2023/04/27 08:28:15;;;;;;;9.00;3.92;;;;;;;11.53;43.31;100961.66;10173834;29;20058;-75
2023/04/27 08:33:19;;;;;;;4.07;2.95;;;;;;;11.76;42.52;100952.66;10173262;29;20048;-73
2023/04/27 08:38:21;;;;;;;4.10;3.20;;;;;;;11.16;41.07;100959.03;10172504;29;20048;-73
2023/04/27 08:43:27;;;;;;;6.45;3.47;;;;;;;11.22;41.65;100953.22;10169553;29;20052;-74
2023/04/27 08:48:31;;;;;;;6.13;3.35;;;;;;;12.14;40.59;100946.97;10175875;29;20522;-74
2023/04/27 08:53:34;;;;;;;9.63;3.38;;;;;;;12.66;38.64;100946.53;10167916;29;20048;-78
2023/04/27 08:58:38;;;;;;;6.55;2.80;;;;;;;12.38;37.61;100943.38;10173055;29;20507;-75
2023/04/27 09:03:45;;;;;;;7.00;3.35;;;;;;;12.70;39.31;100931.81;10164541;29;20067;-73
2023/04/27 09:08:49;;;;;;;7.00;3.20;;;;;;;13.11;37.74;100946.44;10173341;29;20055;-74
2023/04/27 09:13:52;;;;;;;9.05;3.35;;;;;;;12.33;38.38;100938.34;10169243;29;20054;-75
2023/04/27 09:18:58;;;;;;;4.50;2.47;;;;;;;13.02;37.94;100938.13;10166553;29;20049;-74
2023/04/27 09:24:11;;;;;;;3.17;2.47;;;;;;;13.83;37.51;100935.00;10183605;29;20132;-75
2023/04/27 09:29:13;;;;;;;3.97;2.88;;;;;;;14.46;35.57;100930.38;10175621;29;20048;-76
2023/04/27 09:34:18;;;;;;;6.03;2.70;;;;;;;14.61;32.83;100936.25;10172358;29;20130;-74
2023/04/27 09:39:22;;;;;;;5.20;2.70;;;;;;;14.30;33.65;100930.84;10165671;29;20058;-75
2023/04/27 09:44:26;;;;;;;6.50;2.83;;;;;;;14.21;33.47;100930.81;10167623;29;20056;-75
2023/04/27 09:49:34;;;;;;;4.32;3.42;;;;;;;14.87;34.21;100933.06;10173572;29;20056;-75
2023/04/27 09:54:37;;;;;;;4.47;2.63;;;;;;;14.39;33.11;100923.78;10170984;29;20153;-77
2023/04/27 09:59:57;;;;;;;6.13;3.05;;;;;;;14.65;33.54;100920.63;10171834;29;20419;-75
2023/04/27 10:05:32;;;;;;;5.03;3.10;;;;;;;12.99;35.05;100929.44;10171609;29;20559;-77
2023/04/27 10:10:47;;;;;;;6.53;3.10;;;;;;;13.32;34.87;100919.50;10160475;29;20071;-74
2023/04/27 10:15:51;;;;;;;5.10;3.22;;;;;;;11.39;37.71;100917.81;10174742;29;20400;-74
2023/04/27 10:20:55;;;;;;;6.13;3.25;;;;;;;12.21;38.04;100916.91;10178150;29;20087;-76
2023/04/27 10:26:07;;;;;;;7.38;3.40;;;;;;;12.92;37.45;100922.84;10166890;29;20164;-76
2023/04/27 10:31:10;;;;;;;4.72;3.13;;;;;;;14.43;34.70;100902.78;10164201;29;20119;-75
2023/04/27 10:36:15;;;;;;;6.80;3.10;;;;;;;15.34;33.50;100898.94;10168873;29;20047;-74
2023/04/27 10:41:18;;;;;;;7.10;3.15;;;;;;;14.05;33.22;100898.88;10163605;29;20043;-75
2023/04/27 10:46:21;;;;;;;8.38;3.40;;;;;;;13.21;34.57;100906.91;10157390;29;20107;-75
2023/04/27 10:51:27;;;;;;;6.80;3.30;;;;;;;12.65;35.35;100907.94;10178992;29;20043;-76
2023/04/27 10:56:32;;;;;;;6.63;3.28;;;;;;;14.23;35.68;100888.28;10158788;29;20079;-75
2023/04/27 11:01:35;;;;;;;5.07;2.80;;;;;;;15.69;33.16;100884.81;10166988;29;20051;-75
2023/04/27 11:06:44;;;;;;;4.13;3.38;;;;;;;15.95;31.62;100891.44;10164353;29;20066;-75
2023/04/27 11:11:47;;;;;;;7.97;3.17;;;;;;;14.09;31.02;100887.63;10159343;29;20139;-76
2023/04/27 11:16:51;;;;;;;4.38;2.97;;;;;;;14.45;32.53;100879.13;10164923;29;20051;-75
2023/04/27 11:22:03;;;;;;;7.63;3.60;;;;;;;15.67;29.91;100864.28;10169000;29;20115;-76
2023/04/27 11:27:06;;;;;;;6.85;3.30;;;;;;;15.29;29.34;100865.16;10143168;29;20071;-76
2023/04/27 11:32:09;;;;;;;4.18;2.88;;;;;;;15.19;30.67;100868.72;10164119;29;21694;-75
2023/04/27 11:37:22;;;;;;;5.43;3.42;;;;;;;14.75;30.94;100857.44;10195125;29;20081;-76
2023/04/27 11:42:27;;;;;;;5.05;2.95;;;;;;;15.07;30.17;100855.47;10161531;29;20051;-75
2023/04/27 11:47:31;;;;;;;6.78;3.45;;;;;;;15.21;29.84;100845.06;10163106;29;21091;-76
2023/04/27 11:52:37;;;;;;;7.18;2.85;;;;;;;16.32;28.40;100835.41;10159339;29;20639;-74
2023/04/27 11:57:40;;;;;;;3.72;2.90;;;;;;;17.07;28.36;100828.91;10161531;29;20048;-76
2023/04/27 12:02:43;;;;;;;4.53;3.63;;;;;;;16.79;27.68;100837.09;10170631;29;20430;-76
2023/04/27 12:07:48;;;;;;;4.88;3.40;;;;;;;14.96;29.50;100842.94;10165023;29;20051;-75
2023/04/27 12:12:51;;;;;;;8.65;4.07;;;;;;;16.87;30.10;100841.78;10173690;29;20130;-75
2023/04/27 12:17:54;;;;;;;12.05;4.78;;;;;;;17.95;27.28;100834.31;10173664;29;20154;-75
2023/04/27 12:22:58;;;;;;;6.68;3.65;;;;;;;19.59;26.29;100832.84;10163407;29;20055;-75
2023/04/27 12:28:01;;;;;;;3.97;3.40;;;;;;;19.40;25.47;100836.75;10155480;29;20055;-76
2023/04/27 12:33:09;;;;;;;4.05;3.28;;;;;;;19.39;25.35;100826.84;10174411;29;20055;-74
2023/04/27 12:38:14;;;;;;;4.72;3.70;;;;;;;18.76;25.36;100828.34;10164983;29;20118;-74
2023/04/27 12:43:16;;;;;;;6.40;3.95;;;;;;;18.04;26.90;100826.03;10172544;29;20051;-76
2023/04/27 12:48:19;;;;;;;4.82;3.50;;;;;;;17.73;26.48;100819.41;10166565;29;20098;-77
2023/04/27 12:53:23;;;;;;;6.03;3.72;;;;;;;16.59;27.50;100833.66;10164799;29;20070;-75
2023/04/27 12:58:26;;;;;;;4.85;3.35;;;;;;;17.86;28.18;100815.22;10168858;29;20063;-76
2023/04/27 13:03:29;;;;;;;6.88;3.65;;;;;;;18.49;27.29;100811.28;10150791;29;20163;-78
2023/04/27 13:08:33;;;;;;;6.57;5.22;;;;;;;19.72;26.60;100813.22;10163898;29;20396;-76
2023/04/27 13:13:36;;;;;;;7.25;4.75;;;;;;;19.83;26.49;100813.72;10163426;29;20415;-76
2023/04/27 13:18:45;;;;;;;8.30;4.82;;;;;;;20.08;25.50;100808.19;10169662;29;20051;-77
2023/04/27 13:23:50;;;;;;;8.63;3.85;;;;;;;19.94;25.97;100803.44;10167106;29;20139;-77
2023/04/27 13:28:52;;;;;;;5.57;4.47;;;;;;;19.35;26.53;100799.13;10167429;29;20048;-75
2023/04/27 13:33:55;;;;;;;6.15;4.53;;;;;;;19.68;26.42;100808.09;10160012;29;20044;-76
2023/04/27 13:39:00;;;;;;;6.00;4.03;;;;;;;19.68;26.19;100796.38;10169194;29;20574;-75
2023/04/27 13:44:03;;;;;;;6.07;4.20;;;;;;;19.68;25.53;100796.38;10175196;29;20096;-75
2023/04/27 13:49:06;;;;;;;6.75;5.43;;;;;;;18.56;26.05;100790.53;10195770;29;20055;-75
2023/04/27 13:54:10;;;;;;;7.57;4.88;;;;;;;18.34;26.29;100778.41;10170177;29;20134;-75
2023/04/27 13:59:15;;;;;;;6.57;4.70;;;;;;;18.14;27.19;100768.84;10166265;29;20080;-75
2023/04/27 14:04:18;;;;;;;6.72;4.85;;;;;;;18.45;26.47;100776.41;10164586;29;20187;-76
2023/04/27 14:09:25;;;;;;;8.35;5.07;;;;;;;18.35;26.03;100765.69;10169031;29;20067;-75
2023/04/27 14:14:28;;;;;;;7.50;5.15;;;;;;;18.41;28.36;100761.44;10170194;29;20058;-76
2023/04/27 14:19:31;;;;;;;7.90;5.00;;;;;;;19.24;27.54;100764.91;10171435;29;20074;-75
2023/04/27 14:24:35;;;;;;;7.10;4.63;;;;;;;19.77;26.33;100750.84;10162192;29;20052;-75
2023/04/27 14:29:38;;;;;;;6.13;4.50;;;;;;;20.15;26.07;100745.56;10167047;29;20055;-76
2023/04/27 14:34:41;;;;;;;6.10;4.95;;;;;;;20.01;25.72;100742.56;10166495;29;20063;-75
2023/04/27 14:39:46;;;;;;;4.88;4.35;;;;;;;19.59;26.35;100743.75;10169803;29;20135;-75
2023/04/27 14:44:48;;;;;;;5.40;4.72;;;;;;;19.88;25.53;100736.84;10170454;29;20044;-75
2023/04/27 14:49:51;;;;;;;4.82;4.13;;;;;;;20.32;25.25;100736.31;10166980;29;20048;-75
2023/04/27 14:54:56;;;;;;;4.65;4.10;;;;;;;21.06;25.62;100725.69;10159644;29;20064;-76
2023/04/27 15:00:00;;;;;;;7.20;4.22;;;;;;;20.63;25.22;100730.81;10174980;29;20289;-76
2023/04/27 15:06:01;;;;;;;8.50;4.07;;;;;;;20.53;25.24;100722.88;11275294;23;20413;-73
2023/04/27 15:11:06;;;;;;;5.32;4.20;;;;;;;20.55;25.31;100723.53;10199292;29;20050;-74
2023/04/27 15:16:08;;;;;;;7.57;3.97;;;;;;;20.54;25.80;100715.53;10178515;29;20518;-73
2023/04/27 15:21:11;;;;;;;6.18;3.97;;;;;;;20.62;24.98;100706.44;10157907;29;20055;-73
2023/04/27 15:26:15;;;;;;;5.10;3.92;;;;;;;19.85;25.88;100715.38;10188534;29;20059;-75
2023/04/27 15:31:18;;;;;;;6.28;4.03;;;;;;;19.60;25.56;100710.03;10174593;29;20474;-76
2023/04/27 15:36:25;;;;;;;5.25;3.90;;;;;;;19.37;25.31;100704.47;10179018;29;20051;-73
2023/04/27 15:41:29;;;;;;;7.35;4.38;;;;;;;19.06;24.58;100696.19;10164439;29;20145;-73
2023/04/27 15:46:32;;;;;;;4.70;3.90;;;;;;;17.20;26.94;100699.09;10185994;29;20040;-75
2023/04/27 15:51:35;;;;;;;6.57;4.22;;;;;;;17.50;27.07;100691.41;10173111;29;20596;-73
2023/04/27 15:56:39;;;;;;;7.65;3.97;;;;;;;18.62;26.84;100679.34;10166700;29;20079;-73
2023/04/27 16:01:42;;;;;;;5.55;3.45;;;;;;;18.83;27.35;100676.16;10174920;29;20056;-76
2023/04/27 16:06:45;;;;;;;6.50;4.32;;;;;;;17.98;26.51;100674.50;10162338;29;20048;-74
2023/04/27 16:11:49;;;;;;;4.97;4.03;;;;;;;16.98;26.55;100687.72;10182718;29;20055;-74
2023/04/27 16:16:54;;;;;;;5.95;4.20;;;;;;;15.83;28.38;100693.88;10173887;29;20055;-74
2023/04/27 16:21:58;;;;;;;7.05;3.88;;;;;;;15.88;28.85;100683.44;10165021;29;20143;-74
2023/04/27 16:27:03;;;;;;;7.25;4.05;;;;;;;15.29;28.17;100678.41;10168667;29;20042;-74
2023/04/27 16:32:06;;;;;;;10.00;4.25;;;;;;;15.31;28.48;100671.84;10180516;28;20058;-74
2023/04/27 16:37:10;;;;;;;6.03;3.85;;;;;;;15.20;29.92;100680.16;10182693;29;21208;-73
2023/04/27 16:42:19;;;;;;;6.78;3.55;;;;;;;15.08;30.67;100659.69;10179632;29;20058;-73
2023/04/27 16:47:22;;;;;;;4.90;3.90;;;;;;;14.79;30.77;100650.66;10168826;29;20790;-73
2023/04/27 16:52:25;;;;;;;5.60;4.07;;;;;;;14.62;31.98;100653.22;10182499;29;20082;-73
2023/04/27 16:57:29;;;;;;;6.30;3.75;;;;;;;14.66;31.63;100643.84;10173621;28;20057;-74
2023/04/27 17:02:32;;;;;;;5.90;3.47;;;;;;;14.64;32.32;100643.13;10176373;29;20056;-75
2023/04/27 17:07:35;;;;;;;7.93;3.60;;;;;;;14.45;32.47;100652.94;10180492;28;20639;-73
2023/04/27 17:12:39;;;;;;;6.43;3.80;;;;;;;14.31;32.06;100656.91;10187495;29;20075;-73
2023/04/27 17:17:43;;;;;;;4.80;3.70;;;;;;;14.62;31.88;100647.81;10158098;29;20455;-74
2023/04/27 17:22:46;;;;;;;4.28;3.30;;;;;;;14.90;32.47;100646.06;10182052;29;20075;-74
2023/04/27 17:27:50;;;;;;;7.65;2.92;;;;;;;14.74;32.68;100646.66;10190819;29;20062;-74
2023/04/27 17:32:53;;;;;;;6.45;3.75;;;;;;;14.44;32.38;100636.91;10182479;29;20089;-73
2023/04/27 17:37:55;;;;;;;7.35;3.60;;;;;;;14.09;33.27;100638.28;10163356;29;20048;-74
2023/04/27 17:42:59;;;;;;;5.93;3.60;;;;;;;13.81;33.73;100621.91;10176668;29;20047;-74
2023/04/27 17:48:03;;;;;;;5.65;3.70;;;;;;;13.62;34.00;100613.75;10176210;29;20048;-75
2023/04/27 17:53:06;;;;;;;5.57;3.50;;;;;;;13.10;34.17;100619.22;10185048;29;20518;-73
2023/04/27 17:58:10;;;;;;;6.82;3.00;;;;;;;12.95;34.58;100623.28;10183160;28;20059;-75
2023/04/27 18:03:13;;;;;;;4.40;3.17;;;;;;;12.74;35.07;100617.91;10174267;29;20048;-74
2023/04/27 18:08:16;;;;;;;5.07;3.17;;;;;;;12.56;34.83;100614.94;10174320;29;20659;-74
2023/04/27 18:13:20;;;;;;;5.57;3.08;;;;;;;12.44;35.03;100616.00;10179859;29;20091;-73
2023/04/27 18:18:23;;;;;;;7.75;3.05;;;;;;;12.28;35.62;100613.72;10171998;29;20523;-74
2023/04/27 18:23:27;;;;;;;5.15;2.85;;;;;;;12.08;35.42;100616.25;10179248;29;20128;-73
2023/04/27 18:28:31;;;;;;;;;;;;;;;11.92;35.77;100621.22;10178864;29;20062;-74
2023/04/27 18:33:33;;;;;;;5.88;3.42;;;;;;;11.71;35.85;100616.66;10181538;29;19933;-74
2023/04/27 18:38:36;;;;;;;;;;;;;;;11.51;36.38;100617.41;10182964;29;20467;-73
2023/04/27 18:43:40;;;;;;;8.02;3.60;;;;;;;11.33;36.53;100621.59;10162966;29;19926;-74
2023/04/27 18:48:43;;;;;;;8.77;3.60;;;;;;;11.26;37.31;100618.53;10174006;29;20055;-74
2023/04/27 18:53:45;;;;;;;4.35;3.30;;;;;;;11.12;37.60;100613.38;10179481;29;20048;-74
2023/04/27 18:58:50;;;;;;;6.75;3.55;;;;;;;10.99;37.58;100616.16;10172779;29;20051;-74
2023/04/27 19:03:54;;;;;;;5.88;3.05;;;;;;;10.89;37.95;100612.50;10172982;29;20047;-74
2023/04/27 19:08:57;;;;;;;8.85;4.03;;;;;;;10.87;38.50;100630.59;10182200;29;20061;-74
2023/04/27 19:14:02;;;;;;;15.35;3.38;;;;;;;10.78;38.86;100632.19;10177317;29;20115;-73
2023/04/27 19:19:04;;;;;;;4.47;3.90;;;;;;;10.81;38.89;100631.94;10175914;29;20059;-74
2023/04/27 19:24:08;;;;;;;9.68;4.60;;;;;;;10.65;39.02;100629.56;10166471;29;20130;-73
2023/04/27 19:29:12;;;;;;;5.63;3.63;;;;;;;10.50;39.20;100631.59;10178360;29;20391;-74
2023/04/27 19:34:15;;;;;;;6.50;3.33;;;;;;;10.42;39.52;100633.16;10166706;29;20055;-74
2023/04/27 19:39:19;;;;;;;9.95;3.85;;;;;;;10.23;39.93;100631.91;10175713;29;20043;-73
2023/04/27 19:44:24;;;;;;;6.60;4.45;;;;;;;10.16;40.19;100633.31;10181110;29;20062;-73
2023/04/27 19:49:31;;;;;;;7.07;4.30;;;;;;;10.01;40.71;100632.66;10191548;28;20094;-75
2023/04/27 19:54:36;;;;;;;5.57;3.50;;;;;;;9.92;40.90;100636.00;10185283;29;20044;-74
2023/04/27 19:59:41;;;;;;;8.80;3.60;;;;;;;9.85;41.01;100637.41;10200725;29;20062;-74
2023/04/27 20:04:44;;;;;;;5.43;3.55;;;;;;;9.71;41.42;100622.34;10180833;28;20063;-74
2023/04/27 20:09:48;;;;;;;4.88;3.22;;;;;;;9.59;41.68;100621.41;10191840;28;20052;-74
2023/04/27 20:14:52;;;;;;;6.35;3.85;;;;;;;9.52;41.91;100620.16;10180057;28;20074;-73
2023/04/27 20:19:55;;;;;;;5.88;3.60;;;;;;;9.47;42.27;100617.78;10196454;28;20155;-76
2023/04/27 20:24:59;;;;;;;6.43;3.65;;;;;;;9.36;42.81;100612.34;10190355;28;20055;-74
2023/04/27 20:30:03;;;;;;;7.35;3.50;;;;;;;9.28;43.00;100612.06;10192008;28;20507;-75
2023/04/27 20:35:09;;;;;;;5.70;3.85;;;;;;;9.36;43.25;100608.81;10174695;29;20051;-74
2023/04/27 20:40:16;;;;;;;6.38;4.00;;;;;;;9.35;43.46;100601.72;10184960;28;20047;-75
2023/04/27 20:45:20;;;;;;;7.03;3.97;;;;;;;9.26;43.33;100597.91;10186200;29;20052;-74
2023/04/27 20:55:53;;;;;;;7.28;3.53;;;;;;;9.16;43.48;100583.44;10837356;23;20052;-75
2023/04/27 21:00:58;;;;;;;10.15;3.85;;;;;;;9.07;43.41;100579.59;10218168;29;20048;-75
2023/04/27 21:06:00;;;;;;;9.00;3.97;;;;;;;9.10;43.06;100568.66;10180563;29;20415;-75
2023/04/27 21:11:03;;;;;;;5.43;3.50;;;;;;;9.11;42.94;100574.91;10175767;29;20155;-75
2023/04/27 21:16:07;;;;;;;6.15;3.42;;;;;;;9.12;43.09;100572.09;10168674;29;20411;-77
2023/04/27 21:21:10;;;;;;;9.13;3.70;;;;;;;9.08;43.08;100567.94;10177035;29;20044;-76
2023/04/27 21:26:13;;;;;;;6.03;3.78;;;;;;;9.06;43.18;100567.19;10171651;29;20066;-75
2023/04/27 21:31:17;;;;;;;;;;;;;;;9.14;43.03;100567.47;10175272;29;20100;-75
2023/04/27 21:36:22;;;;;;;5.95;3.80;;;;;;;9.17;42.92;100553.84;10169141;29;19938;-75
2023/04/27 21:41:25;;;;;;;;;;;;;;;9.17;42.95;100545.81;10226478;23;20080;-78
2023/04/27 21:46:29;;;;;;;8.35;4.00;;;;;;;9.17;43.08;100543.13;10212900;29;19978;-78
2023/04/27 21:51:33;;;;;;;6.88;3.33;;;;;;;9.21;43.19;100533.88;10210245;29;20047;-77
2023/04/27 21:56:36;;;;;;;7.70;3.85;;;;;;;9.13;43.20;100530.91;10208091;29;20059;-77
2023/04/27 22:01:40;;;;;;;9.27;3.92;;;;;;;9.20;43.22;100520.63;10212735;29;20074;-77
2023/04/27 22:06:43;;;;;;;9.77;3.95;;;;;;;9.18;43.34;100517.19;10194854;29;20091;-78
2023/04/27 22:11:46;;;;;;;8.65;3.75;;;;;;;9.20;43.37;100501.84;10213841;29;20059;-77
2023/04/27 22:16:50;;;;;;;8.02;3.97;;;;;;;9.21;43.39;100496.38;10186462;29;20052;-77
2023/04/27 22:21:54;;;;;;;9.27;3.65;;;;;;;9.18;43.33;100485.88;10214198;29;20050;-77
2023/04/27 22:26:57;;;;;;;5.20;3.60;;;;;;;9.15;43.57;100474.53;10213149;29;20044;-77
2023/04/27 22:32:01;;;;;;;6.30;3.72;;;;;;;9.13;43.33;100463.91;10196483;29;20052;-76
2023/04/27 22:37:04;;;;;;;6.80;3.20;;;;;;;9.12;43.44;100461.38;10209171;29;20526;-77
2023/04/27 22:42:07;;;;;;;6.45;3.65;;;;;;;9.11;43.48;100465.03;10183097;29;20056;-78
2023/04/27 22:47:11;;;;;;;9.07;3.72;;;;;;;9.05;43.55;100461.81;10208742;29;20047;-79
2023/04/27 22:52:15;;;;;;;6.65;3.75;;;;;;;9.01;43.70;100465.69;10207141;29;20048;-79
2023/04/27 22:57:18;;;;;;;4.90;3.28;;;;;;;8.99;43.94;100453.34;10203893;29;20039;-77
2023/04/27 23:02:22;;;;;;;7.32;3.20;;;;;;;8.96;43.93;100448.22;10230830;29;20043;-79
2023/04/27 23:07:25;;;;;;;6.00;3.83;;;;;;;8.98;nan;100436.44;10237489;29;20075;-77
2023/04/27 23:12:29;;;;;;;7.25;3.30;;;;;;;8.91;44.24;100429.81;10235732;29;20048;-75
2023/04/27 23:17:33;;;;;;;4.93;3.28;;;;;;;8.85;44.23;100424.91;10242593;29;20107;-77
2023/04/27 23:22:38;;;;;;;8.50;3.33;;;;;;;8.83;44.21;100411.63;10238569;29;20084;-75
2023/04/27 23:27:41;;;;;;;5.20;3.13;;;;;;;8.88;44.47;100413.97;10219462;29;20083;-76